Elim, Alaska
Current Conditions -  °F | °C
As of 2:58 AM on Thursday 29 Jan 2015 (Local Time) from PFEL Reporting Station
Clear Clear  
Wind Chill: -5°   Ceiling: Unl
Heat Index: -5°   Visibility: 10mi
Dew Point: -14°   Wind: 0mph
Humidity: 65%   Direction: NA
Pressure: 30.56"   Gusts: NA
Location:  64.62°N, 162.27°W
Report Text: PFEL 291158Z AUTO 00000KT 10SM CLR M21/M26 A3056 RMK AO2 SLP352 T12061256 11178 21206 53009 FZRANO
Loading
Personal Weather Stations






























Interactive Weather Map New forecast layout! Learn more

10-Day Weather Forecast

Advertisements
Track Severe Weather on mobile